Time;durP1;ratioP1;P1;durP2;ratioP2;P2;SDS_P1;SDS_P2;PMS_P1;PMS_P2;Temp;Humidity;BMP_temperature;BMP_pressure;BME280_temperature;BME280_humidity;BME280_pressure;Samples;Min_cycle;Max_cycle;Signal;HPM_P1;HPM_P2
2021/11/12 00:13:23;;;;;;;59.38;37.85;;;;;;;10.34;65.99;101675.91;5054387;28;20053;-62
2021/11/12 00:15:54;;;;;;;59.38;37.38;;;;;;;10.58;64.99;101679.56;5046501;28;20052;-62
2021/11/12 00:18:24;;;;;;;55.17;36.55;;;;;;;10.69;64.41;101672.00;5059705;28;20053;-63
2021/11/12 00:20:52;;;;;;;54.00;35.95;;;;;;;10.82;64.18;101671.34;5074047;28;20103;-63
2021/11/12 00:23:21;;;;;;;57.03;36.42;;;;;;;10.97;63.74;101666.47;5052857;28;20041;-62
2021/11/12 00:25:50;;;;;;;52.72;36.03;;;;;;;10.88;63.54;101670.19;5036880;28;20048;-62
2021/11/12 00:28:21;;;;;;;54.03;35.45;;;;;;;11.05;63.22;101673.28;5054400;28;20142;-62
2021/11/12 00:30:56;;;;;;;54.85;34.63;;;;;;;10.87;63.09;101668.50;5048103;28;20049;-62
2021/11/12 00:38:51;;;;;;;55.63;35.70;;;;;;;10.50;64.68;101660.91;5040790;28;20060;-63
2021/11/12 00:41:39;;;;;;;56.45;35.90;;;;;;;10.56;64.52;101653.41;5075859;28;20052;-61
2021/11/12 00:44:27;;;;;;;59.25;36.22;;;;;;;10.73;64.60;101659.28;5077177;28;20044;-62
2021/11/12 00:49:46;;;;;;;53.97;35.33;;;;;;;10.48;65.06;101659.56;5063231;28;20067;-62
2021/11/12 00:52:17;;;;;;;52.92;34.80;;;;;;;10.30;65.92;101660.28;5083858;28;20057;-61
2021/11/12 00:54:44;;;;;;;54.50;35.08;;;;;;;10.48;65.28;101654.84;5057247;28;20393;-62
2021/11/12 00:57:11;;;;;;;51.58;34.28;;;;;;;10.68;65.21;101651.09;5057528;28;20049;-61
2021/11/12 00:59:39;;;;;;;52.17;33.95;;;;;;;10.51;65.73;101653.47;5055040;28;20535;-63
2021/11/12 01:02:07;;;;;;;50.03;33.67;;;;;;;10.70;64.73;101646.94;5058052;28;20057;-63
2021/11/12 01:04:35;;;;;;;49.83;32.20;;;;;;;10.93;63.97;101661.84;5057048;28;20492;-62
2021/11/12 01:07:03;;;;;;;52.28;34.67;;;;;;;10.76;64.85;101662.28;5056082;28;20053;-61
2021/11/12 01:09:30;;;;;;;50.33;33.35;;;;;;;10.79;64.23;101663.66;5051036;28;20045;-61
2021/11/12 01:11:57;;;;;;;53.38;34.42;;;;;;;11.06;63.17;101650.94;5038969;28;20049;-61
2021/11/12 01:14:26;;;;;;;53.60;34.83;;;;;;;10.76;63.75;101651.28;5037105;28;20045;-62
2021/11/12 01:16:53;;;;;;;57.22;35.42;;;;;;;10.13;65.86;101644.97;5037126;28;20057;-61
2021/11/12 01:19:21;;;;;;;52.30;33.90;;;;;;;10.46;65.16;101639.75;5051524;28;20428;-62
2021/11/12 01:21:49;;;;;;;51.25;33.45;;;;;;;10.32;65.34;101630.53;5037027;28;20050;-61
2021/11/12 01:24:16;;;;;;;52.55;34.67;;;;;;;10.15;65.85;101637.25;5036609;28;20038;-62
2021/11/12 01:26:44;;;;;;;50.88;33.40;;;;;;;10.04;65.96;101635.66;5035570;28;20053;-62
2021/11/12 01:29:11;;;;;;;48.88;32.30;;;;;;;10.55;64.79;101635.25;5042810;28;20045;-63
2021/11/12 01:31:40;;;;;;;52.83;33.90;;;;;;;10.14;64.33;101632.88;5058072;28;20053;-63
2021/11/12 01:34:09;;;;;;;51.20;33.60;;;;;;;9.83;65.84;101633.38;5056510;28;20049;-62
2021/11/12 01:36:42;;;;;;;48.75;31.83;;;;;;;10.03;66.08;101631.28;5055358;28;20056;-63
2021/11/12 01:39:15;;;;;;;51.80;33.53;;;;;;;10.64;64.39;101631.56;5062353;28;20045;-61
2021/11/12 01:41:49;;;;;;;49.10;32.83;;;;;;;10.45;63.63;101619.63;5048358;28;20064;-61
2021/11/12 01:44:26;;;;;;;52.92;34.00;;;;;;;10.69;64.01;101626.00;5036294;28;20048;-63
2021/11/12 01:50:08;;;;;;;48.50;31.75;;;;;;;10.56;64.54;101631.38;5036046;28;20076;-62
2021/11/12 01:55:04;;;;;;;50.33;32.25;;;;;;;10.58;64.09;101618.97;5036098;28;20049;-61
2021/11/12 02:00:08;;;;;;;47.22;33.03;;;;;;;10.79;63.55;101614.06;5035695;28;20057;-61
2021/11/12 02:02:36;;;;;;;48.15;31.23;;;;;;;10.78;63.51;101615.16;5035813;28;20053;-61
2021/11/12 02:05:03;;;;;;;48.90;32.92;;;;;;;10.79;64.25;101612.09;5036085;28;20484;-62
2021/11/12 02:07:38;;;;;;;44.88;31.35;;;;;;;10.85;64.37;101608.19;5036030;28;20390;-61
2021/11/12 02:10:11;;;;;;;50.55;32.22;;;;;;;10.74;64.24;101597.59;5035545;28;20057;-62
2021/11/12 02:12:56;;;;;;;49.60;32.47;;;;;;;10.78;63.49;101596.69;5036400;28;20053;-63
2021/11/12 02:15:25;;;;;;;46.38;32.47;;;;;;;10.63;63.79;101594.13;5033795;28;20054;-63
2021/11/12 02:18:05;;;;;;;49.97;32.80;;;;;;;10.86;62.86;101585.00;5034515;28;20094;-62
2021/11/12 02:20:41;;;;;;;;;;;;;;;10.85;63.92;101590.81;5035680;28;20543;-61
2021/11/12 02:23:08;;;;;;;53.97;34.03;;;;;;;10.47;63.09;101587.13;5035935;28;19921;-62
2021/11/12 02:25:41;;;;;;;52.67;34.28;;;;;;;9.85;65.24;101582.44;5035668;28;20041;-61
2021/11/12 02:28:14;;;;;;;51.70;33.40;;;;;;;10.03;67.43;101584.50;5035820;28;20049;-61
2021/11/12 02:30:46;;;;;;;50.92;31.95;;;;;;;10.28;65.65;101580.72;5050356;28;20057;-63
2021/11/12 02:33:17;;;;;;;47.40;32.60;;;;;;;10.94;64.02;101583.53;5035342;28;20060;-61
2021/11/12 02:36:06;;;;;;;52.20;33.55;;;;;;;10.66;64.56;101592.69;5034619;28;20151;-61
2021/11/12 02:38:42;;;;;;;49.63;32.22;;;;;;;10.63;63.73;101585.84;5053479;28;20053;-62
2021/11/12 02:41:10;;;;;;;52.85;33.92;;;;;;;10.68;64.20;101585.78;5072781;28;20056;-62
2021/11/12 02:43:40;;;;;;;55.30;34.05;;;;;;;10.54;64.33;101582.09;5054047;28;20053;-63
2021/11/12 02:46:09;;;;;;;51.03;33.72;;;;;;;10.64;65.49;101581.13;5054103;28;20045;-62
2021/11/12 02:48:40;;;;;;;50.25;32.60;;;;;;;10.42;65.30;101580.84;5053922;28;20040;-63
2021/11/12 02:51:09;;;;;;;;;;;;;;;10.44;64.46;101578.63;5054309;28;20480;-63
2021/11/12 02:53:37;;;;;;;49.25;32.55;;;;;;;10.72;64.21;101589.56;5054755;28;19935;-64
2021/11/12 02:56:09;;;;;;;50.03;33.15;;;;;;;10.74;64.58;101579.09;5054278;28;20476;-63
2021/11/12 02:58:40;;;;;;;49.85;33.50;;;;;;;10.85;64.14;101574.28;5053112;28;20057;-62
2021/11/12 03:01:09;;;;;;;52.83;33.00;;;;;;;10.98;63.97;101570.81;5054739;28;20057;-62
2021/11/12 03:03:37;;;;;;;52.75;33.90;;;;;;;10.87;64.06;101569.28;5053435;28;20059;-63
2021/11/12 03:06:05;;;;;;;51.42;34.45;;;;;;;10.13;64.60;101578.09;5054839;28;20045;-62
2021/11/12 03:08:33;;;;;;;51.35;32.90;;;;;;;10.56;65.81;101577.13;5054660;28;20381;-62
2021/11/12 03:11:00;;;;;;;50.83;32.80;;;;;;;10.77;63.91;101584.03;5054353;28;20055;-62
2021/11/12 03:13:28;;;;;;;49.67;31.77;;;;;;;10.90;63.89;101576.97;5055210;28;20075;-62
2021/11/12 03:15:55;;;;;;;52.40;32.92;;;;;;;10.83;64.16;101571.00;5054646;28;20056;-62
2021/11/12 03:18:23;;;;;;;49.60;32.20;;;;;;;10.88;63.32;101569.00;5054936;28;20075;-61
2021/11/12 03:20:52;;;;;;;50.20;32.83;;;;;;;10.68;64.70;101572.00;5053341;28;20128;-61
2021/11/12 03:23:24;;;;;;;50.42;31.55;;;;;;;10.87;64.26;101572.06;5054278;28;20049;-62
2021/11/12 03:28:44;;;;;;;52.90;33.10;;;;;;;10.13;65.28;101570.66;5055736;28;20063;-61
2021/11/12 04:04:08;;;;;;;45.38;28.92;;;;;;;10.11;67.15;101536.28;5048481;28;20060;-58
2021/11/12 04:06:51;;;;;;;45.83;29.98;;;;;;;9.68;67.07;101527.00;5053098;28;20056;-59
2021/11/12 04:18:27;;;;;;;45.50;29.85;;;;;;;9.21;69.14;101531.47;5058031;28;20171;-59
2021/11/12 05:12:46;;;;;;;43.60;28.73;;;;;;;10.15;67.47;101457.50;5055412;28;20085;-58
2021/11/12 05:45:46;;;;;;;40.90;26.60;;;;;;;10.37;66.75;101419.25;5056407;28;20060;-57
2021/11/12 05:51:24;;;;;;;38.65;24.90;;;;;;;10.13;67.04;101434.94;5056225;28;20056;-57
2021/11/12 05:56:40;;;;;;;38.22;24.95;;;;;;;10.79;64.27;101421.94;5056077;28;20345;-60
2021/11/12 05:59:12;;;;;;;38.75;24.60;;;;;;;10.68;63.76;101417.72;5056308;28;20049;-58
2021/11/12 06:01:40;;;;;;;41.63;25.17;;;;;;;10.45;63.86;101415.81;5055889;28;20049;-59
2021/11/12 06:04:07;;;;;;;38.50;25.38;;;;;;;10.08;65.31;101410.19;5041185;28;20049;-58
2021/11/12 06:06:35;;;;;;;37.83;25.65;;;;;;;10.27;66.34;101413.84;5036093;28;20049;-61
2021/11/12 06:09:03;;;;;;;40.22;25.00;;;;;;;10.26;65.50;101423.22;5035632;28;20556;-58
2021/11/12 06:11:32;;;;;;;39.83;25.25;;;;;;;10.20;65.67;101413.38;5067315;28;20069;-62
2021/11/12 06:14:00;;;;;;;38.70;25.00;;;;;;;10.57;65.15;101416.22;5070938;28;20049;-60
2021/11/12 06:16:27;;;;;;;39.75;24.42;;;;;;;10.50;65.38;101406.66;5049302;28;20057;-59
2021/11/12 06:18:54;;;;;;;37.60;24.00;;;;;;;10.20;65.11;101405.13;5055440;28;20064;-59
2021/11/12 06:21:23;;;;;;;37.22;23.52;;;;;;;9.36;68.21;101396.66;5055535;28;20464;-61
2021/11/12 06:23:50;;;;;;;39.20;24.50;;;;;;;9.13;66.89;101400.97;5053981;28;20052;-60
2021/11/12 06:26:19;;;;;;;39.42;23.02;;;;;;;9.49;67.80;101396.81;5056210;28;20049;-61
2021/11/12 06:28:46;;;;;;;34.75;21.92;;;;;;;10.14;66.60;101403.56;5087446;28;20083;-62
2021/11/12 06:31:14;;;;;;;33.05;21.42;;;;;;;9.64;67.88;101410.41;5053320;28;20372;-60
2021/11/12 06:33:41;;;;;;;33.72;21.48;;;;;;;9.72;66.33;101415.28;5055576;28;20456;-60
2021/11/12 06:36:08;;;;;;;33.75;20.65;;;;;;;9.60;67.28;101401.09;5055561;28;20045;-58
2021/11/12 06:38:37;;;;;;;33.85;21.40;;;;;;;9.48;68.38;101403.44;5055541;28;20045;-61
2021/11/12 06:41:11;;;;;;;33.05;20.58;;;;;;;10.37;65.11;101408.22;5073860;28;20041;-61
2021/11/12 06:43:52;;;;;;;34.88;20.48;;;;;;;10.31;64.37;101406.66;5056065;28;20048;-61
2021/11/12 06:49:22;;;;;;;33.58;19.85;;;;;;;10.24;64.44;101411.69;5054442;28;20052;-60
2021/11/12 06:51:51;;;;;;;31.58;19.25;;;;;;;9.40;66.64;101417.78;5053787;28;20076;-59
2021/11/12 06:54:19;;;;;;;32.63;19.45;;;;;;;9.97;66.83;101411.44;5053801;28;20045;-59
2021/11/12 06:56:47;;;;;;;26.90;18.13;;;;;;;9.92;64.95;101397.75;5055540;28;20045;-58
2021/11/12 06:59:15;;;;;;;28.15;18.55;;;;;;;10.40;64.24;101399.38;5055122;28;20052;-59
2021/11/12 07:01:47;;;;;;;29.10;16.95;;;;;;;10.36;66.92;101400.25;5048747;28;20045;-61
2021/11/12 07:04:15;;;;;;;27.30;17.13;;;;;;;10.03;62.97;101407.50;5050138;28;20432;-60
2021/11/12 07:06:43;;;;;;;28.42;17.92;;;;;;;9.98;66.92;101402.06;5072158;28;20052;-60
2021/11/12 07:09:10;;;;;;;26.27;16.65;;;;;;;9.47;65.12;101399.03;5052431;28;20049;-59
2021/11/12 07:11:38;;;;;;;23.73;15.55;;;;;;;9.21;64.66;101399.53;5039225;28;20049;-61
2021/11/12 07:14:05;;;;;;;26.65;16.70;;;;;;;8.68;69.47;101404.06;5035088;28;20043;-60
2021/11/12 07:16:33;;;;;;;23.65;15.50;;;;;;;9.50;71.04;101411.38;5048540;28;20060;-61
2021/11/12 07:19:01;;;;;;;23.45;14.68;;;;;;;9.71;70.37;101410.88;5053766;28;20060;-62
2021/11/12 07:21:29;;;;;;;24.30;13.60;;;;;;;9.82;70.50;101395.91;5046381;28;20056;-58
2021/11/12 07:24:01;;;;;;;19.33;12.43;;;;;;;9.98;71.08;101402.06;5044312;28;20148;-61
2021/11/12 07:26:30;;;;;;;21.17;13.38;;;;;;;10.11;71.54;101412.41;5041021;28;20440;-64
2021/11/12 07:28:57;;;;;;;20.67;12.32;;;;;;;10.39;69.09;101400.47;5046227;28;20056;-60
2021/11/12 07:31:41;;;;;;;20.15;12.98;;;;;;;10.31;67.91;101386.53;5046216;28;20053;-61
2021/11/12 07:34:08;;;;;;;18.73;12.32;;;;;;;10.07;66.98;101387.38;5056827;28;20045;-60
2021/11/12 07:36:58;;;;;;;18.85;11.40;;;;;;;10.42;67.66;101383.38;5040147;28;20053;-62
2021/11/12 07:42:35;;;;;;;23.98;14.25;;;;;;;8.85;67.55;101390.75;5040245;28;20052;-62
2021/11/12 07:47:31;;;;;;;20.00;13.73;;;;;;;8.46;71.28;101389.88;5078971;28;20052;-60
2021/11/12 07:50:01;;;;;;;26.77;15.75;;;;;;;8.52;69.64;101383.28;5045841;28;20581;-59
2021/11/12 07:52:31;;;;;;;23.15;14.00;;;;;;;8.35;67.72;101374.59;5039436;28;20049;-61
2021/11/12 07:55:00;;;;;;;25.38;14.30;;;;;;;7.68;70.35;101369.63;5038505;28;20067;-61
2021/11/12 07:57:27;;;;;;;39.83;22.65;;;;;;;7.97;71.66;101367.88;5038310;28;20416;-61
2021/11/12 07:59:56;;;;;;;19.65;12.98;;;;;;;8.72;69.10;101367.50;5037329;28;20060;-61
2021/11/12 08:02:24;;;;;;;20.48;11.85;;;;;;;9.13;66.35;101367.19;5038008;28;20056;-60
2021/11/12 08:04:59;;;;;;;18.35;11.40;;;;;;;9.64;64.39;101376.59;5051536;28;20053;-62
2021/11/12 08:07:29;;;;;;;18.48;11.75;;;;;;;9.71;63.94;101396.31;5054260;28;20488;-61
2021/11/12 08:09:59;;;;;;;;;;;;;;;10.13;63.54;101411.00;5046283;28;20052;-65
2021/11/12 08:12:34;;;;;;;21.85;13.38;;;;;;;9.63;62.63;101418.94;5055262;28;20399;-62
2021/11/12 08:17:49;;;;;;;24.67;12.38;;;;;;;9.93;63.35;101424.13;5042082;28;20076;-64
2021/11/12 08:26:25;;;;;;;20.20;12.25;;;;;;;10.63;61.02;101406.78;5034534;28;20092;-63
2021/11/12 08:34:23;;;;;;;22.15;12.32;;;;;;;10.44;60.58;101402.34;5057666;28;20052;-62
2021/11/12 08:43:00;;;;;;;20.25;13.18;;;;;;;10.39;61.60;101408.72;5063304;28;20053;-62
2021/11/12 08:45:20;;;;;;;21.92;13.30;;;;;;;10.36;61.52;101400.25;5049286;28;20508;-63
2021/11/12 08:47:55;;;;;;;22.65;12.38;;;;;;;10.49;61.31;101389.34;5038326;28;20045;-61
2021/11/12 08:50:23;;;;;;;22.13;13.32;;;;;;;10.45;61.83;101403.97;5040110;28;20041;-63
2021/11/12 08:52:53;;;;;;;26.35;15.05;;;;;;;10.56;60.83;101403.56;5045042;28;20049;-62
2021/11/12 08:55:28;;;;;;;25.38;14.55;;;;;;;10.41;61.65;101381.72;5047145;28;20427;-62
2021/11/12 08:57:56;;;;;;;25.25;14.05;;;;;;;10.46;61.27;101381.66;5056148;28;20049;-64
2021/11/12 09:00:25;;;;;;;20.80;13.32;;;;;;;10.79;61.60;101388.09;5054949;28;20064;-61
2021/11/12 09:02:53;;;;;;;21.02;13.88;;;;;;;10.36;62.09;101394.72;5054533;28;20053;-63
2021/11/12 09:05:22;;;;;;;25.52;15.07;;;;;;;10.51;62.05;101395.38;5055955;28;20045;-63
2021/11/12 09:07:50;;;;;;;25.90;14.55;;;;;;;10.50;61.29;101398.41;5051527;28;20068;-63
2021/11/12 09:10:19;;;;;;;23.65;14.25;;;;;;;10.55;61.30;101407.41;5049535;28;20386;-61
2021/11/12 09:12:51;;;;;;;20.40;14.05;;;;;;;10.70;60.63;101398.13;5037728;28;20065;-63
2021/11/12 09:15:27;;;;;;;29.27;15.43;;;;;;;10.70;60.89;101400.88;5038110;28;20488;-64
2021/11/12 09:17:56;;;;;;;23.42;14.95;;;;;;;10.75;60.60;101409.06;5045562;28;20471;-60
2021/11/12 09:20:24;;;;;;;23.73;14.82;;;;;;;10.29;61.34;101406.13;5045156;28;20136;-64
2021/11/12 09:22:53;;;;;;;25.35;16.83;;;;;;;10.58;61.99;101389.50;5037532;28;20049;-63
2021/11/12 09:25:24;;;;;;;20.63;13.90;;;;;;;10.76;60.87;101383.16;5038106;28;20096;-60
2021/11/12 09:27:52;;;;;;;22.83;13.50;;;;;;;10.90;61.28;101386.78;5049043;28;20052;-63
2021/11/12 09:30:22;;;;;;;25.55;16.15;;;;;;;11.02;59.63;101381.63;5048686;28;20492;-64
2021/11/12 09:32:54;;;;;;;32.58;15.18;;;;;;;10.72;61.15;101377.41;5068363;28;20413;-62
2021/11/12 09:35:23;;;;;;;32.13;17.45;;;;;;;10.75;60.17;101371.31;5037034;28;20060;-64
2021/11/12 09:37:51;;;;;;;26.58;15.75;;;;;;;10.93;60.58;101366.91;5044680;28;20045;-64
2021/11/12 09:40:20;;;;;;;26.73;17.55;;;;;;;10.82;60.95;101385.56;5046790;28;20046;-64
2021/11/12 09:42:48;;;;;;;29.75;16.77;;;;;;;11.11;60.26;101375.16;5052242;28;20512;-64
2021/11/12 09:45:17;;;;;;;31.02;19.00;;;;;;;10.30;60.95;101384.91;5048859;28;20054;-64
2021/11/12 09:47:44;;;;;;;28.35;17.50;;;;;;;10.49;62.11;101380.25;5037487;28;20056;-62
2021/11/12 09:50:27;;;;;;;28.10;17.38;;;;;;;10.51;60.87;101380.78;5036634;28;20528;-62
2021/11/12 09:52:57;;;;;;;28.52;16.73;;;;;;;10.46;61.43;101356.84;5044738;28;20057;-62
2021/11/12 09:55:26;;;;;;;30.40;18.67;;;;;;;10.12;63.05;101340.56;5038926;28;20056;-62
2021/11/12 09:57:54;;;;;;;37.78;18.17;;;;;;;10.57;62.48;101330.00;5048791;28;20045;-62
2021/11/12 10:00:24;;;;;;;30.35;19.83;;;;;;;10.26;61.95;101335.13;5049402;28;20396;-63
2021/11/12 10:02:53;;;;;;;29.80;19.20;;;;;;;10.38;61.99;101320.91;5041111;28;20072;-61
2021/11/12 10:05:34;;;;;;;33.55;19.27;;;;;;;10.06;63.56;101327.09;5044937;28;20049;-63
2021/11/12 10:08:33;;;;;;;33.90;19.75;;;;;;;10.51;61.87;101329.28;5042202;28;20057;-62
2021/11/12 10:11:07;;;;;;;33.67;20.17;;;;;;;10.39;61.81;101322.56;5044272;28;20056;-62
2021/11/12 10:13:46;;;;;;;35.03;20.83;;;;;;;10.92;61.79;101318.41;5043467;28;20059;-62
2021/11/12 10:16:35;;;;;;;30.35;18.38;;;;;;;10.82;60.12;101308.38;5043753;28;20041;-63
2021/11/12 10:19:13;;;;;;;28.10;19.70;;;;;;;10.57;61.83;101318.97;5047565;28;20041;-63
2021/11/12 10:21:43;;;;;;;30.15;20.65;;;;;;;9.71;65.03;101336.59;5045133;28;20059;-61
2021/11/12 10:24:16;;;;;;;33.40;20.50;;;;;;;10.39;62.99;101322.56;5044231;28;20610;-63
2021/11/12 10:26:52;;;;;;;28.25;17.85;;;;;;;11.09;61.39;101310.38;5052522;28;20045;-62
2021/11/12 10:29:26;;;;;;;29.65;18.88;;;;;;;11.14;60.56;101308.38;5041261;28;20481;-63
2021/11/12 10:32:06;;;;;;;26.10;17.65;;;;;;;11.02;60.28;101302.53;5043429;28;20042;-63
2021/11/12 10:34:37;;;;;;;31.40;18.70;;;;;;;11.54;59.29;101295.75;5052525;28;20049;-63
2021/11/12 10:37:25;;;;;;;31.15;18.95;;;;;;;11.28;59.16;101313.91;5060043;28;20052;-63
2021/11/12 10:39:57;;;;;;;30.38;19.23;;;;;;;11.45;59.50;101327.13;5049392;28;20408;-63
2021/11/12 10:42:28;;;;;;;28.92;20.17;;;;;;;11.35;59.46;101331.72;5050538;28;20045;-64
2021/11/12 10:44:59;;;;;;;29.42;18.38;;;;;;;11.32;59.25;101321.28;5037186;28;20037;-63
2021/11/12 10:47:28;;;;;;;24.33;16.20;;;;;;;11.27;59.71;101321.38;5044170;28;20071;-66
2021/11/12 10:50:09;;;;;;;28.48;18.25;;;;;;;11.31;59.75;101302.28;5038453;28;20118;-64
2021/11/12 10:52:38;;;;;;;27.08;16.90;;;;;;;11.46;58.84;101287.38;5045309;28;20049;-63
2021/11/12 10:55:13;;;;;;;27.17;16.95;;;;;;;11.04;59.98;101274.66;5048889;28;20044;-63
2021/11/12 10:57:51;;;;;;;29.08;18.60;;;;;;;11.22;59.92;101249.78;5026555;28;20489;-62
2021/11/12 11:00:24;;;;;;;26.98;16.55;;;;;;;11.15;59.84;101254.88;5041308;28;20049;-63
2021/11/12 11:02:54;;;;;;;30.92;19.13;;;;;;;11.44;59.75;101245.50;5052136;28;20045;-61
2021/11/12 11:05:31;;;;;;;29.13;18.85;;;;;;;11.40;59.18;101231.50;5076630;28;20053;-62
2021/11/12 11:08:08;;;;;;;29.35;20.00;;;;;;;10.86;61.17;101246.00;5047711;28;20056;-61
2021/11/12 11:10:44;;;;;;;31.27;20.65;;;;;;;11.09;61.17;101249.75;5051305;28;20598;-62
2021/11/12 11:13:14;;;;;;;29.40;18.67;;;;;;;10.79;61.13;101229.06;5047365;28;20063;-62
2021/11/12 11:15:46;;;;;;;28.35;18.92;;;;;;;11.17;61.00;101227.81;5048946;28;20065;-64
2021/11/12 11:21:04;;;;;;;26.60;17.70;;;;;;;11.49;60.38;101253.69;5050104;28;20440;-61
2021/11/12 11:23:51;;;;;;;25.27;16.90;;;;;;;11.26;59.90;101241.72;5034824;28;20053;-62
2021/11/12 11:26:40;;;;;;;26.95;18.70;;;;;;;11.62;59.40;101234.38;5037139;28;20481;-61
2021/11/12 11:29:21;;;;;;;29.83;19.17;;;;;;;11.44;59.89;101235.28;5035006;28;20041;-63
2021/11/12 11:31:51;;;;;;;27.83;18.35;;;;;;;11.40;60.03;101230.69;5053505;28;20041;-62
2021/11/12 11:34:19;;;;;;;30.73;19.70;;;;;;;11.63;59.37;101232.44;5046131;28;20048;-63
2021/11/12 11:36:47;;;;;;;28.10;19.60;;;;;;;11.85;59.16;101252.66;5040549;28;20397;-65
2021/11/12 11:39:17;;;;;;;30.70;21.50;;;;;;;12.24;57.89;101249.28;5079066;28;20049;-64
2021/11/12 11:41:45;;;;;;;28.98;19.08;;;;;;;12.07;58.33;101224.28;5040768;28;20072;-63
2021/11/12 11:44:17;;;;;;;33.78;19.48;;;;;;;12.10;58.50;101224.47;5050477;28;20046;-62
2021/11/12 11:46:48;;;;;;;37.78;21.38;;;;;;;12.09;58.77;101244.13;5037003;28;20053;-62
2021/11/12 11:49:18;;;;;;;30.33;19.45;;;;;;;12.16;58.62;101252.81;5033221;28;20076;-61
2021/11/12 11:51:50;;;;;;;;;;;;;;;12.21;59.19;101241.63;5049953;28;20065;-62
2021/11/12 11:54:18;;;;;;;27.15;18.52;;;;;;;12.24;58.74;101252.06;5047142;28;19920;-63
2021/11/12 11:56:48;;;;;;;33.63;19.60;;;;;;;12.24;58.63;101241.00;5038519;28;20057;-66
2021/11/12 11:59:24;;;;;;;29.60;19.25;;;;;;;12.41;58.41;101228.16;5038990;28;20045;-63
2021/11/12 12:01:55;;;;;;;25.85;17.42;;;;;;;12.46;58.11;101224.47;5033193;28;20045;-62
2021/11/12 12:04:26;;;;;;;27.83;18.45;;;;;;;12.66;57.87;101215.66;5034136;28;20041;-62
2021/11/12 12:07:02;;;;;;;25.20;16.33;;;;;;;13.06;56.28;101217.41;5038409;28;20076;-62
2021/11/12 12:09:54;;;;;;;23.88;17.45;;;;;;;12.92;56.48;101211.09;5043839;28;20049;-61
2021/11/12 12:12:31;;;;;;;24.40;16.85;;;;;;;13.27;55.58;101201.03;5054652;28;20088;-62
2021/11/12 12:15:04;;;;;;;24.98;15.32;;;;;;;13.45;54.96;101192.50;5042038;28;20045;-62
2021/11/12 12:17:34;;;;;;;22.27;16.35;;;;;;;13.53;55.26;101190.88;5037352;28;20384;-62
2021/11/12 12:20:23;;;;;;;21.98;16.25;;;;;;;13.88;53.99;101181.50;5047097;28;20423;-64
2021/11/12 13:25:30;;;;;;;20.05;12.32;;;;;;;14.78;53.40;101085.41;5063121;28;20056;-63
2021/11/12 13:28:31;;;;;;;26.55;14.18;;;;;;;14.78;53.88;101091.78;5043637;28;20053;-63
2021/11/12 13:31:03;;;;;;;20.65;11.85;;;;;;;14.94;53.62;101081.72;5044307;28;20060;-64
2021/11/12 13:33:30;;;;;;;19.48;12.75;;;;;;;15.05;53.58;101085.75;5053718;28;20053;-64
2021/11/12 13:35:59;;;;;;;21.90;12.15;;;;;;;15.03;53.78;101078.94;5053918;28;20534;-63
2021/11/12 13:39:03;;;;;;;18.83;12.13;;;;;;;15.02;53.79;101080.06;5071765;28;20060;-63
2021/11/12 13:41:34;;;;;;;18.83;13.65;;;;;;;15.13;53.71;101071.00;5050396;28;20053;-63
2021/11/12 13:44:08;;;;;;;19.50;12.75;;;;;;;15.16;53.87;101064.00;5069060;28;20037;-63
2021/11/12 13:46:46;;;;;;;19.27;13.18;;;;;;;15.19;53.79;101063.31;5021071;28;20132;-63
2021/11/12 13:49:47;;;;;;;21.30;14.25;;;;;;;15.15;53.96;101052.06;5042584;28;20045;-63
2021/11/12 13:52:27;;;;;;;27.85;14.18;;;;;;;14.20;56.97;101058.31;5039756;28;20053;-63
2021/11/12 13:55:13;;;;;;;21.00;13.55;;;;;;;14.47;56.95;101049.66;5058211;28;20053;-64
2021/11/12 13:57:56;;;;;;;20.60;14.23;;;;;;;14.83;56.13;101038.06;5049204;28;20049;-62
2021/11/12 14:00:28;;;;;;;19.88;14.13;;;;;;;14.97;55.64;101045.03;5039971;28;20044;-62
2021/11/12 14:03:22;;;;;;;21.50;15.02;;;;;;;14.87;55.98;101056.47;5040475;28;20060;-62
2021/11/12 14:05:56;;;;;;;18.83;14.52;;;;;;;15.01;55.48;101047.94;5035845;28;20052;-62
2021/11/12 14:08:37;;;;;;;20.73;14.13;;;;;;;14.85;56.00;101039.38;5043082;28;20394;-62
2021/11/12 14:11:16;;;;;;;20.23;14.07;;;;;;;15.05;55.69;101046.91;5044069;28;20057;-61
2021/11/12 14:13:46;;;;;;;21.07;13.73;;;;;;;15.40;55.08;101042.81;5038528;28;20080;-63
2021/11/12 14:16:17;;;;;;;20.38;14.70;;;;;;;15.44;54.41;101035.44;5044115;28;20077;-61
2021/11/12 14:22:30;;;;;;;20.40;14.70;;;;;;;15.38;54.69;101022.03;5068613;28;20053;-61
2021/11/12 14:38:15;;;;;;;19.65;13.00;;;;;;;15.61;53.61;101026.16;5035973;28;20526;-63
2021/11/12 14:40:55;;;;;;;17.98;11.18;;;;;;;15.71;53.18;101017.41;5038956;28;20056;-64
2021/11/12 14:46:11;;;;;;;15.77;9.93;;;;;;;15.94;51.77;101031.72;5035742;28;20512;-63
2021/11/12 14:52:14;;;;;;;15.10;9.20;;;;;;;15.71;51.39;101012.66;5033262;28;20611;-62
2021/11/12 14:54:46;;;;;;;12.75;8.32;;;;;;;15.78;50.98;101007.38;5033973;28;20077;-62
2021/11/12 14:59:53;;;;;;;14.23;7.25;;;;;;;15.85;50.18;101011.56;5040249;28;20519;-64
2021/11/12 15:02:21;;;;;;;10.32;7.13;;;;;;;15.88;50.22;101022.81;5044802;28;20052;-63
2021/11/12 15:04:48;;;;;;;10.77;6.78;;;;;;;16.03;49.86;101024.13;5047397;28;20079;-64
2021/11/12 15:07:22;;;;;;;12.40;6.82;;;;;;;16.07;49.90;101033.41;5044252;28;20059;-63
2021/11/12 15:09:51;;;;;;;12.80;6.65;;;;;;;16.18;49.61;101027.06;5045939;28;20045;-66
2021/11/12 15:12:20;;;;;;;16.35;6.47;;;;;;;15.87;50.05;101029.50;5052510;28;20044;-62
2021/11/12 15:14:54;;;;;;;12.57;6.70;;;;;;;16.17;49.06;101039.34;5043836;28;20056;-63
2021/11/12 15:17:22;;;;;;;12.27;6.53;;;;;;;15.88;50.08;101022.00;5045035;28;20041;-62
2021/11/12 15:19:50;;;;;;;10.93;6.30;;;;;;;16.05;50.32;101019.88;5049909;28;20052;-63
2021/11/12 15:30:35;;;;;;;11.27;6.15;;;;;;;16.01;50.08;101023.66;5037966;28;20044;-63
2021/11/12 15:33:05;;;;;;;13.63;6.55;;;;;;;15.78;50.41;101026.00;5050021;28;20052;-63
2021/11/12 15:35:34;;;;;;;12.98;6.68;;;;;;;15.68;50.66;101027.22;5039720;28;20042;-63
2021/11/12 15:38:07;;;;;;;11.23;6.43;;;;;;;15.62;50.81;101028.59;5042703;28;20058;-60
2021/11/12 15:40:37;;;;;;;11.43;6.72;;;;;;;15.66;51.11;101032.31;5060552;28;20491;-60
2021/11/12 15:43:12;;;;;;;;;;;;;;;15.63;50.51;101023.84;5046752;28;20049;-63
2021/11/12 15:53:33;;;;;;;13.85;6.80;;;;;;;15.66;51.12;101037.03;5054367;28;20053;-63
2021/11/12 15:59:05;;;;;;;11.18;6.85;;;;;;;15.50;51.83;101039.63;5040990;28;20488;-63
2021/11/12 16:04:32;;;;;;;12.23;6.75;;;;;;;15.44;52.27;101046.53;5078764;28;20049;-63
2021/11/12 16:25:22;;;;;;;13.75;7.63;;;;;;;15.49;52.40;101053.84;5046962;28;20060;-61
2021/11/12 16:27:55;;;;;;;16.13;7.90;;;;;;;15.25;53.09;101056.44;5059160;28;20424;-63
2021/11/12 16:30:29;;;;;;;15.13;9.10;;;;;;;15.43;52.67;101055.22;5051234;28;20056;-64
2021/11/12 16:32:58;;;;;;;14.63;8.02;;;;;;;15.55;52.50;101044.19;5057037;28;20048;-62
2021/11/12 16:35:33;;;;;;;11.73;7.25;;;;;;;15.44;52.71;101045.72;5059659;28;20045;-62
2021/11/12 16:38:12;;;;;;;22.45;8.60;;;;;;;15.48;52.75;101061.34;5067437;28;20055;-62
2021/11/12 16:40:47;;;;;;;16.92;8.20;;;;;;;15.53;52.76;101046.47;5046834;28;20053;-65
2021/11/12 16:48:44;;;;;;;15.02;7.68;;;;;;;15.55;52.96;101046.97;5039644;28;20053;-62
2021/11/12 16:54:06;;;;;;;13.02;8.57;;;;;;;15.38;53.52;101052.59;5075104;28;20053;-61
2021/11/12 16:59:20;;;;;;;14.63;9.10;;;;;;;15.28;53.99;101050.22;5037939;28;20045;-60
2021/11/12 17:04:40;;;;;;;17.50;9.68;;;;;;;15.18;54.61;101042.28;5038355;28;20123;-61
2021/11/12 17:10:20;;;;;;;15.85;9.82;;;;;;;15.13;55.09;101034.16;5046957;28;20072;-62
2021/11/12 17:15:33;;;;;;;14.40;9.75;;;;;;;15.10;55.23;101029.28;5055556;28;20056;-61